sensor_id;sensor_type;location;lat;lon;timestamp;pressure;altitude;pressure_sealevel;temperature;humidity
82353;BME280;71954;47.430;18.920;2024-03-08T00:00:34;100204.16;;;7.50;74.11
82353;BME280;71954;47.430;18.920;2024-03-08T00:03:01;100195.94;;;7.54;74.15
82353;BME280;71954;47.430;18.920;2024-03-08T00:05:29;100201.88;;;7.58;74.31
82353;BME280;71954;47.430;18.920;2024-03-08T00:07:56;100198.19;;;7.60;74.05
82353;BME280;71954;47.430;18.920;2024-03-08T00:10:23;100194.81;;;7.58;74.26
82353;BME280;71954;47.430;18.920;2024-03-08T00:12:53;100199.09;;;7.47;74.13
82353;BME280;71954;47.430;18.920;2024-03-08T00:15:20;100199.19;;;7.45;74.56
82353;BME280;71954;47.430;18.920;2024-03-08T00:17:49;100196.53;;;7.45;75.04
82353;BME280;71954;47.430;18.920;2024-03-08T00:20:17;100201.59;;;7.48;74.77
82353;BME280;71954;47.430;18.920;2024-03-08T00:22:46;100198.78;;;7.51;74.65
82353;BME280;71954;47.430;18.920;2024-03-08T00:25:13;100199.72;;;7.50;74.26
82353;BME280;71954;47.430;18.920;2024-03-08T00:27:41;100194.44;;;7.50;74.67
82353;BME280;71954;47.430;18.920;2024-03-08T00:30:08;100200.38;;;7.54;73.70
82353;BME280;71954;47.430;18.920;2024-03-08T00:32:35;100198.38;;;7.57;74.42
82353;BME280;71954;47.430;18.920;2024-03-08T00:35:02;100191.50;;;7.55;74.07
82353;BME280;71954;47.430;18.920;2024-03-08T00:37:29;100195.00;;;7.55;73.19
82353;BME280;71954;47.430;18.920;2024-03-08T00:39:56;100200.19;;;7.57;73.32
82353;BME280;71954;47.430;18.920;2024-03-08T00:42:23;100193.88;;;7.59;74.13
82353;BME280;71954;47.430;18.920;2024-03-08T00:44:51;100191.94;;;7.61;74.41
82353;BME280;71954;47.430;18.920;2024-03-08T00:47:18;100193.75;;;7.61;74.52
82353;BME280;71954;47.430;18.920;2024-03-08T00:49:45;100190.06;;;7.63;74.00
82353;BME280;71954;47.430;18.920;2024-03-08T00:52:13;100184.88;;;7.62;74.11
82353;BME280;71954;47.430;18.920;2024-03-08T00:54:41;100189.00;;;7.66;73.77
82353;BME280;71954;47.430;18.920;2024-03-08T00:57:09;100185.16;;;7.71;72.65
82353;BME280;71954;47.430;18.920;2024-03-08T00:59:38;100186.63;;;7.75;73.94
82353;BME280;71954;47.430;18.920;2024-03-08T01:02:04;100177.00;;;7.74;73.77
82353;BME280;71954;47.430;18.920;2024-03-08T01:04:32;100176.25;;;7.72;73.67
82353;BME280;71954;47.430;18.920;2024-03-08T01:06:59;100176.19;;;7.60;73.22
82353;BME280;71954;47.430;18.920;2024-03-08T01:09:26;100176.50;;;7.55;73.77
82353;BME280;71954;47.430;18.920;2024-03-08T01:11:54;100182.63;;;7.56;73.96
82353;BME280;71954;47.430;18.920;2024-03-08T01:14:22;100175.88;;;7.52;74.38
82353;BME280;71954;47.430;18.920;2024-03-08T01:16:49;100178.41;;;7.53;74.53
82353;BME280;71954;47.430;18.920;2024-03-08T01:19:16;100173.13;;;7.53;73.98
82353;BME280;71954;47.430;18.920;2024-03-08T01:21:42;100179.22;;;7.54;74.54
82353;BME280;71954;47.430;18.920;2024-03-08T01:24:09;100173.94;;;7.54;74.80
82353;BME280;71954;47.430;18.920;2024-03-08T01:26:36;100177.00;;;7.48;74.41
82353;BME280;71954;47.430;18.920;2024-03-08T01:29:03;100172.22;;;7.40;74.70
82353;BME280;71954;47.430;18.920;2024-03-08T01:31:30;100174.03;;;7.25;75.06
82353;BME280;71954;47.430;18.920;2024-03-08T01:33:57;100174.88;;;7.26;75.49
82353;BME280;71954;47.430;18.920;2024-03-08T01:36:24;100175.09;;;7.23;75.42
82353;BME280;71954;47.430;18.920;2024-03-08T01:38:51;100180.75;;;7.17;75.15
82353;BME280;71954;47.430;18.920;2024-03-08T01:41:18;100177.16;;;7.18;75.36
82353;BME280;71954;47.430;18.920;2024-03-08T01:43:46;100176.13;;;7.20;75.32
82353;BME280;71954;47.430;18.920;2024-03-08T01:46:15;100173.56;;;7.19;75.08
82353;BME280;71954;47.430;18.920;2024-03-08T01:48:43;100176.81;;;7.10;75.39
82353;BME280;71954;47.430;18.920;2024-03-08T01:51:11;100168.63;;;6.86;75.50
82353;BME280;71954;47.430;18.920;2024-03-08T01:53:39;100170.59;;;6.82;75.89
82353;BME280;71954;47.430;18.920;2024-03-08T01:56:06;100166.66;;;6.89;75.67
82353;BME280;71954;47.430;18.920;2024-03-08T01:58:33;100170.50;;;6.98;75.24
82353;BME280;71954;47.430;18.920;2024-03-08T02:01:01;100170.03;;;6.91;75.67
82353;BME280;71954;47.430;18.920;2024-03-08T02:03:30;100176.91;;;6.94;76.36
82353;BME280;71954;47.430;18.920;2024-03-08T02:05:58;100163.84;;;6.92;75.69
82353;BME280;71954;47.430;18.920;2024-03-08T02:08:28;100168.34;;;6.90;76.02
82353;BME280;71954;47.430;18.920;2024-03-08T02:10:55;100172.59;;;6.93;75.98
82353;BME280;71954;47.430;18.920;2024-03-08T02:13:22;100170.59;;;6.97;75.89
82353;BME280;71954;47.430;18.920;2024-03-08T02:15:59;100169.03;;;6.80;75.57
82353;BME280;71954;47.430;18.920;2024-03-08T02:18:28;100174.47;;;6.91;75.80
82353;BME280;71954;47.430;18.920;2024-03-08T02:20:57;100166.09;;;6.99;76.18
82353;BME280;71954;47.430;18.920;2024-03-08T02:23:25;100175.19;;;7.07;75.75
82353;BME280;71954;47.430;18.920;2024-03-08T02:25:53;100176.50;;;7.14;75.21
82353;BME280;71954;47.430;18.920;2024-03-08T02:28:20;100173.41;;;7.22;74.92
82353;BME280;71954;47.430;18.920;2024-03-08T02:30:48;100174.13;;;7.24;74.46
82353;BME280;71954;47.430;18.920;2024-03-08T02:33:15;100176.75;;;7.24;74.60
82353;BME280;71954;47.430;18.920;2024-03-08T02:35:44;100181.41;;;7.20;74.70
82353;BME280;71954;47.430;18.920;2024-03-08T02:38:21;100171.22;;;7.14;74.43
82353;BME280;71954;47.430;18.920;2024-03-08T02:40:50;100171.78;;;7.19;74.64
82353;BME280;71954;47.430;18.920;2024-03-08T02:43:18;100173.19;;;7.25;74.50
82353;BME280;71954;47.430;18.920;2024-03-08T02:45:45;100177.38;;;7.15;75.12
82353;BME280;71954;47.430;18.920;2024-03-08T02:48:13;100175.88;;;6.97;74.60
82353;BME280;71954;47.430;18.920;2024-03-08T02:50:40;100176.44;;;7.02;74.94
82353;BME280;71954;47.430;18.920;2024-03-08T02:53:09;100175.09;;;7.09;74.44
82353;BME280;71954;47.430;18.920;2024-03-08T02:55:37;100171.25;;;7.00;74.52
82353;BME280;71954;47.430;18.920;2024-03-08T02:58:04;100173.03;;;7.00;74.05
82353;BME280;71954;47.430;18.920;2024-03-08T03:00:31;100177.88;;;6.93;74.63
82353;BME280;71954;47.430;18.920;2024-03-08T03:02:59;100174.38;;;6.92;74.67
82353;BME280;71954;47.430;18.920;2024-03-08T03:05:26;100180.59;;;6.91;74.54
82353;BME280;71954;47.430;18.920;2024-03-08T03:07:53;100178.91;;;6.90;75.03
82353;BME280;71954;47.430;18.920;2024-03-08T03:10:19;100181.63;;;6.89;74.85
82353;BME280;71954;47.430;18.920;2024-03-08T03:12:48;100187.75;;;6.89;74.56
82353;BME280;71954;47.430;18.920;2024-03-08T03:15:15;100184.16;;;6.76;74.86
82353;BME280;71954;47.430;18.920;2024-03-08T03:17:49;100185.88;;;6.77;74.80
82353;BME280;71954;47.430;18.920;2024-03-08T03:20:19;100179.81;;;6.75;75.28
82353;BME280;71954;47.430;18.920;2024-03-08T03:23:07;100184.09;;;6.78;75.09
82353;BME280;71954;47.430;18.920;2024-03-08T03:25:35;100187.84;;;6.88;74.68
82353;BME280;71954;47.430;18.920;2024-03-08T03:28:02;100183.78;;;6.97;74.17
82353;BME280;71954;47.430;18.920;2024-03-08T03:30:30;100186.81;;;7.05;74.67
82353;BME280;71954;47.430;18.920;2024-03-08T03:33:00;100187.75;;;7.04;73.50
82353;BME280;71954;47.430;18.920;2024-03-08T03:35:28;100198.59;;;6.99;73.69
82353;BME280;71954;47.430;18.920;2024-03-08T03:37:58;100195.84;;;7.01;73.65
82353;BME280;71954;47.430;18.920;2024-03-08T03:40:29;100188.78;;;7.01;74.22
82353;BME280;71954;47.430;18.920;2024-03-08T03:42:55;100193.66;;;7.07;74.54
82353;BME280;71954;47.430;18.920;2024-03-08T03:45:25;100194.06;;;7.15;74.04
82353;BME280;71954;47.430;18.920;2024-03-08T03:47:52;100198.28;;;7.18;74.47
82353;BME280;71954;47.430;18.920;2024-03-08T03:50:19;100192.06;;;7.19;74.29
82353;BME280;71954;47.430;18.920;2024-03-08T03:52:46;100194.53;;;7.22;73.53
82353;BME280;71954;47.430;18.920;2024-03-08T03:55:14;100194.31;;;7.25;73.48
82353;BME280;71954;47.430;18.920;2024-03-08T03:57:41;100195.47;;;7.21;73.85
82353;BME280;71954;47.430;18.920;2024-03-08T04:00:08;100195.47;;;7.21;74.43
82353;BME280;71954;47.430;18.920;2024-03-08T04:02:39;100199.59;;;7.25;73.79
82353;BME280;71954;47.430;18.920;2024-03-08T04:05:06;100191.28;;;7.31;73.59
82353;BME280;71954;47.430;18.920;2024-03-08T04:07:34;100191.81;;;7.36;73.68
82353;BME280;71954;47.430;18.920;2024-03-08T04:10:04;100189.78;;;7.41;72.29
82353;BME280;71954;47.430;18.920;2024-03-08T04:12:35;100185.03;;;7.46;72.61
82353;BME280;71954;47.430;18.920;2024-03-08T04:15:02;100193.03;;;7.45;72.51
82353;BME280;71954;47.430;18.920;2024-03-08T04:17:29;100187.41;;;7.36;71.79
82353;BME280;71954;47.430;18.920;2024-03-08T04:19:55;100195.22;;;7.38;72.85
82353;BME280;71954;47.430;18.920;2024-03-08T04:22:23;100187.13;;;7.41;71.88
82353;BME280;71954;47.430;18.920;2024-03-08T04:24:50;100192.97;;;7.46;72.47
82353;BME280;71954;47.430;18.920;2024-03-08T04:27:17;100197.56;;;7.43;71.62
82353;BME280;71954;47.430;18.920;2024-03-08T04:29:44;100194.97;;;7.28;71.31
82353;BME280;71954;47.430;18.920;2024-03-08T04:32:10;100199.03;;;7.34;71.12
82353;BME280;71954;47.430;18.920;2024-03-08T04:34:37;100197.97;;;7.36;72.27
82353;BME280;71954;47.430;18.920;2024-03-08T04:37:04;100195.44;;;7.35;71.62
82353;BME280;71954;47.430;18.920;2024-03-08T04:39:31;100197.50;;;7.30;72.50
82353;BME280;71954;47.430;18.920;2024-03-08T04:42:01;100200.34;;;7.13;72.18
82353;BME280;71954;47.430;18.920;2024-03-08T04:44:33;100202.06;;;7.14;72.13
82353;BME280;71954;47.430;18.920;2024-03-08T04:47:00;100201.22;;;7.13;73.05
82353;BME280;71954;47.430;18.920;2024-03-08T04:49:27;100199.88;;;7.06;72.17
82353;BME280;71954;47.430;18.920;2024-03-08T04:51:54;100204.13;;;7.09;72.97
82353;BME280;71954;47.430;18.920;2024-03-08T04:54:21;100204.69;;;7.00;74.28
82353;BME280;71954;47.430;18.920;2024-03-08T04:56:48;100207.91;;;6.76;73.85
82353;BME280;71954;47.430;18.920;2024-03-08T04:59:15;100204.81;;;6.84;74.19
82353;BME280;71954;47.430;18.920;2024-03-08T05:01:41;100210.56;;;6.90;74.38
82353;BME280;71954;47.430;18.920;2024-03-08T05:04:08;100200.84;;;6.91;74.95
82353;BME280;71954;47.430;18.920;2024-03-08T05:06:35;100205.28;;;6.90;74.62
82353;BME280;71954;47.430;18.920;2024-03-08T05:09:03;100202.34;;;6.95;74.25
82353;BME280;71954;47.430;18.920;2024-03-08T05:11:41;100202.06;;;7.00;74.45
82353;BME280;71954;47.430;18.920;2024-03-08T05:14:08;100206.53;;;6.99;74.23
82353;BME280;71954;47.430;18.920;2024-03-08T05:16:35;100203.97;;;6.98;74.62
82353;BME280;71954;47.430;18.920;2024-03-08T05:19:02;100207.25;;;7.01;74.57
82353;BME280;71954;47.430;18.920;2024-03-08T05:21:29;100204.31;;;7.06;74.54
82353;BME280;71954;47.430;18.920;2024-03-08T05:23:55;100211.13;;;7.10;74.09
82353;BME280;71954;47.430;18.920;2024-03-08T05:26:22;100214.50;;;7.12;73.91
82353;BME280;71954;47.430;18.920;2024-03-08T05:28:49;100219.59;;;7.15;73.46
82353;BME280;71954;47.430;18.920;2024-03-08T05:31:21;100207.97;;;7.17;74.14
82353;BME280;71954;47.430;18.920;2024-03-08T05:33:49;100210.63;;;7.17;74.19
82353;BME280;71954;47.430;18.920;2024-03-08T05:36:16;100211.84;;;7.12;74.00
82353;BME280;71954;47.430;18.920;2024-03-08T05:38:43;100212.81;;;7.11;74.10
82353;BME280;71954;47.430;18.920;2024-03-08T05:41:10;100217.72;;;7.17;74.07
82353;BME280;71954;47.430;18.920;2024-03-08T05:43:40;100216.75;;;7.18;73.48
82353;BME280;71954;47.430;18.920;2024-03-08T05:46:07;100223.19;;;7.14;73.22
82353;BME280;71954;47.430;18.920;2024-03-08T05:48:33;100230.06;;;7.16;73.50
82353;BME280;71954;47.430;18.920;2024-03-08T05:51:00;100229.09;;;7.17;74.18
82353;BME280;71954;47.430;18.920;2024-03-08T05:53:29;100238.28;;;6.98;73.48
82353;BME280;71954;47.430;18.920;2024-03-08T05:55:58;100241.47;;;7.03;73.47
82353;BME280;71954;47.430;18.920;2024-03-08T05:58:25;100239.47;;;7.06;74.07
82353;BME280;71954;47.430;18.920;2024-03-08T06:00:52;100241.28;;;6.91;73.90
82353;BME280;71954;47.430;18.920;2024-03-08T06:03:19;100246.72;;;6.88;73.89
82353;BME280;71954;47.430;18.920;2024-03-08T06:05:48;100243.81;;;6.79;74.40
82353;BME280;71954;47.430;18.920;2024-03-08T06:08:16;100242.03;;;6.79;74.88
82353;BME280;71954;47.430;18.920;2024-03-08T06:10:43;100247.22;;;6.81;74.79
82353;BME280;71954;47.430;18.920;2024-03-08T06:13:10;100240.31;;;6.64;74.37
82353;BME280;71954;47.430;18.920;2024-03-08T06:15:38;100242.16;;;6.48;75.24
82353;BME280;71954;47.430;18.920;2024-03-08T06:18:06;100244.16;;;6.59;75.29
82353;BME280;71954;47.430;18.920;2024-03-08T06:20:33;100242.81;;;6.37;75.65
82353;BME280;71954;47.430;18.920;2024-03-08T06:22:59;100243.47;;;6.41;75.82
82353;BME280;71954;47.430;18.920;2024-03-08T06:25:27;100248.94;;;6.38;76.50
82353;BME280;71954;47.430;18.920;2024-03-08T06:27:54;100248.66;;;6.42;76.39
82353;BME280;71954;47.430;18.920;2024-03-08T06:30:21;100248.94;;;6.38;76.93
82353;BME280;71954;47.430;18.920;2024-03-08T06:32:48;100252.84;;;6.31;76.28
82353;BME280;71954;47.430;18.920;2024-03-08T06:35:15;100250.63;;;6.39;76.41
82353;BME280;71954;47.430;18.920;2024-03-08T06:37:43;100257.41;;;6.43;76.17
82353;BME280;71954;47.430;18.920;2024-03-08T06:40:11;100248.22;;;6.50;75.81
82353;BME280;71954;47.430;18.920;2024-03-08T06:42:41;100251.03;;;6.61;75.72
82353;BME280;71954;47.430;18.920;2024-03-08T06:45:08;100260.88;;;6.73;75.21
82353;BME280;71954;47.430;18.920;2024-03-08T06:47:36;100255.03;;;6.82;75.14
82353;BME280;71954;47.430;18.920;2024-03-08T06:50:04;100258.31;;;6.72;75.97
82353;BME280;71954;47.430;18.920;2024-03-08T06:52:31;100267.84;;;6.74;75.55
82353;BME280;71954;47.430;18.920;2024-03-08T06:54:57;100262.19;;;6.80;75.87
82353;BME280;71954;47.430;18.920;2024-03-08T06:57:24;100266.06;;;6.89;75.92
82353;BME280;71954;47.430;18.920;2024-03-08T06:59:51;100263.50;;;6.87;75.89
82353;BME280;71954;47.430;18.920;2024-03-08T07:02:19;100269.25;;;6.80;74.48
82353;BME280;71954;47.430;18.920;2024-03-08T07:04:45;100265.19;;;6.88;74.38
82353;BME280;71954;47.430;18.920;2024-03-08T07:07:12;100265.50;;;6.98;74.44
82353;BME280;71954;47.430;18.920;2024-03-08T07:09:38;100261.44;;;7.07;74.14
82353;BME280;71954;47.430;18.920;2024-03-08T07:12:05;100267.28;;;7.12;73.96
82353;BME280;71954;47.430;18.920;2024-03-08T07:14:32;100268.34;;;7.09;74.42
82353;BME280;71954;47.430;18.920;2024-03-08T07:16:59;100260.41;;;7.09;74.22
82353;BME280;71954;47.430;18.920;2024-03-08T07:19:29;100265.59;;;7.11;74.31
82353;BME280;71954;47.430;18.920;2024-03-08T07:21:55;100258.97;;;7.18;74.51
82353;BME280;71954;47.430;18.920;2024-03-08T07:24:22;100264.19;;;7.19;74.31
82353;BME280;71954;47.430;18.920;2024-03-08T07:27:06;100266.34;;;6.99;74.73
82353;BME280;71954;47.430;18.920;2024-03-08T07:29:33;100265.13;;;7.04;74.66
82353;BME280;71954;47.430;18.920;2024-03-08T07:32:02;100268.25;;;7.11;74.07
82353;BME280;71954;47.430;18.920;2024-03-08T07:34:29;100268.88;;;7.00;74.84
82353;BME280;71954;47.430;18.920;2024-03-08T07:37:00;100274.84;;;7.04;74.78
82353;BME280;71954;47.430;18.920;2024-03-08T07:39:26;100278.97;;;7.08;74.98
82353;BME280;71954;47.430;18.920;2024-03-08T07:41:53;100277.75;;;7.13;74.07
82353;BME280;71954;47.430;18.920;2024-03-08T07:44:19;100280.88;;;7.20;74.76
82353;BME280;71954;47.430;18.920;2024-03-08T07:46:46;100276.91;;;7.27;73.87
82353;BME280;71954;47.430;18.920;2024-03-08T07:49:13;100275.03;;;7.29;74.31
82353;BME280;71954;47.430;18.920;2024-03-08T07:51:40;100282.75;;;7.32;73.94
82353;BME280;71954;47.430;18.920;2024-03-08T07:54:07;100281.97;;;7.30;73.59
82353;BME280;71954;47.430;18.920;2024-03-08T07:56:35;100280.47;;;7.26;73.52
82353;BME280;71954;47.430;18.920;2024-03-08T07:59:04;100275.66;;;7.18;74.71
82353;BME280;71954;47.430;18.920;2024-03-08T08:01:31;100279.38;;;7.16;74.25
82353;BME280;71954;47.430;18.920;2024-03-08T08:03:58;100284.66;;;7.16;74.56
82353;BME280;71954;47.430;18.920;2024-03-08T08:06:25;100282.56;;;7.21;74.78
82353;BME280;71954;47.430;18.920;2024-03-08T08:08:52;100281.97;;;7.30;74.94
82353;BME280;71954;47.430;18.920;2024-03-08T08:11:19;100277.16;;;7.36;74.94
82353;BME280;71954;47.430;18.920;2024-03-08T08:13:46;100270.47;;;7.45;73.95
82353;BME280;71954;47.430;18.920;2024-03-08T08:16:13;100275.56;;;7.48;73.54
82353;BME280;71954;47.430;18.920;2024-03-08T08:18:40;100274.53;;;7.51;73.21
82353;BME280;71954;47.430;18.920;2024-03-08T08:21:07;100269.91;;;7.40;74.10
82353;BME280;71954;47.430;18.920;2024-03-08T08:23:34;100272.56;;;7.26;74.64
82353;BME280;71954;47.430;18.920;2024-03-08T08:26:00;100274.44;;;7.24;75.42
82353;BME280;71954;47.430;18.920;2024-03-08T08:28:29;100285.59;;;7.29;75.50
82353;BME280;71954;47.430;18.920;2024-03-08T08:30:57;100285.09;;;7.36;75.53
82353;BME280;71954;47.430;18.920;2024-03-08T08:33:23;100286.53;;;7.14;75.30
82353;BME280;71954;47.430;18.920;2024-03-08T08:35:52;100285.03;;;7.10;75.81
82353;BME280;71954;47.430;18.920;2024-03-08T08:38:20;100278.69;;;7.12;76.32
82353;BME280;71954;47.430;18.920;2024-03-08T08:40:47;100279.16;;;7.19;76.12
82353;BME280;71954;47.430;18.920;2024-03-08T08:43:14;100278.78;;;7.25;76.50
82353;BME280;71954;47.430;18.920;2024-03-08T08:45:40;100277.75;;;7.27;76.08
82353;BME280;71954;47.430;18.920;2024-03-08T08:48:07;100279.25;;;7.31;75.96
82353;BME280;71954;47.430;18.920;2024-03-08T08:50:33;100282.44;;;7.36;76.11
82353;BME280;71954;47.430;18.920;2024-03-08T08:53:00;100281.97;;;7.44;76.15
82353;BME280;71954;47.430;18.920;2024-03-08T08:55:27;100277.47;;;7.32;76.68
82353;BME280;71954;47.430;18.920;2024-03-08T08:57:55;100279.53;;;7.41;76.41
82353;BME280;71954;47.430;18.920;2024-03-08T09:00:23;100275.56;;;7.48;76.33
82353;BME280;71954;47.430;18.920;2024-03-08T09:02:54;100277.16;;;7.51;76.76
82353;BME280;71954;47.430;18.920;2024-03-08T09:05:24;100285.56;;;7.57;76.42
82353;BME280;71954;47.430;18.920;2024-03-08T09:07:52;100282.44;;;7.65;75.88
82353;BME280;71954;47.430;18.920;2024-03-08T09:10:19;100276.63;;;7.72;75.27
82353;BME280;71954;47.430;18.920;2024-03-08T09:12:46;100279.03;;;7.63;75.23
82353;BME280;71954;47.430;18.920;2024-03-08T09:15:13;100273.78;;;7.34;75.97
82353;BME280;71954;47.430;18.920;2024-03-08T09:17:40;100282.19;;;7.27;76.65
82353;BME280;71954;47.430;18.920;2024-03-08T09:20:09;100278.44;;;7.17;76.80
82353;BME280;71954;47.430;18.920;2024-03-08T09:22:44;100278.59;;;7.28;77.35
82353;BME280;71954;47.430;18.920;2024-03-08T09:25:12;100277.38;;;7.33;76.81
82353;BME280;71954;47.430;18.920;2024-03-08T09:27:39;100280.19;;;7.45;77.08
82353;BME280;71954;47.430;18.920;2024-03-08T09:30:06;100280.44;;;7.54;76.14
82353;BME280;71954;47.430;18.920;2024-03-08T09:32:34;100276.38;;;7.63;75.58
82353;BME280;71954;47.430;18.920;2024-03-08T09:35:02;100275.25;;;7.67;75.43
82353;BME280;71954;47.430;18.920;2024-03-08T09:37:29;100277.41;;;7.60;76.05
82353;BME280;71954;47.430;18.920;2024-03-08T09:39:55;100278.00;;;7.65;76.15
82353;BME280;71954;47.430;18.920;2024-03-08T09:42:22;100279.22;;;7.60;76.26
82353;BME280;71954;47.430;18.920;2024-03-08T09:44:49;100278.09;;;7.64;76.10
82353;BME280;71954;47.430;18.920;2024-03-08T09:47:17;100281.47;;;7.66;76.07
82353;BME280;71954;47.430;18.920;2024-03-08T09:49:44;100276.56;;;7.74;76.17
82353;BME280;71954;47.430;18.920;2024-03-08T09:52:11;100277.78;;;7.68;76.16
82353;BME280;71954;47.430;18.920;2024-03-08T09:54:39;100275.00;;;7.57;76.30
82353;BME280;71954;47.430;18.920;2024-03-08T09:57:06;100282.13;;;7.69;76.71
82353;BME280;71954;47.430;18.920;2024-03-08T09:59:35;100278.25;;;7.75;76.14
82353;BME280;71954;47.430;18.920;2024-03-08T10:02:02;100279.66;;;7.66;75.62
82353;BME280;71954;47.430;18.920;2024-03-08T10:04:29;100280.66;;;7.37;76.90
82353;BME280;71954;47.430;18.920;2024-03-08T10:06:58;100287.72;;;7.51;76.97
82353;BME280;71954;47.430;18.920;2024-03-08T10:09:25;100280.91;;;7.61;76.66
82353;BME280;71954;47.430;18.920;2024-03-08T10:11:56;100284.47;;;7.74;76.48
82353;BME280;71954;47.430;18.920;2024-03-08T10:14:27;100282.94;;;7.84;76.62
82353;BME280;71954;47.430;18.920;2024-03-08T10:16:54;100279.72;;;7.93;74.94
82353;BME280;71954;47.430;18.920;2024-03-08T10:19:20;100278.66;;;7.96;74.39
82353;BME280;71954;47.430;18.920;2024-03-08T10:21:52;100278.47;;;7.99;74.44
82353;BME280;71954;47.430;18.920;2024-03-08T10:24:20;100278.81;;;8.07;74.95
82353;BME280;71954;47.430;18.920;2024-03-08T10:26:46;100285.38;;;8.14;74.49
82353;BME280;71954;47.430;18.920;2024-03-08T10:29:14;100279.91;;;8.17;74.78
82353;BME280;71954;47.430;18.920;2024-03-08T10:31:45;100283.09;;;8.22;74.09
82353;BME280;71954;47.430;18.920;2024-03-08T10:34:12;100284.56;;;8.26;74.47
82353;BME280;71954;47.430;18.920;2024-03-08T10:36:40;100284.31;;;8.31;73.69
82353;BME280;71954;47.430;18.920;2024-03-08T10:39:25;100278.56;;;8.24;73.80
82353;BME280;71954;47.430;18.920;2024-03-08T10:41:56;100280.31;;;8.11;74.26
82353;BME280;71954;47.430;18.920;2024-03-08T10:47:07;100276.22;;;7.93;74.46
82353;BME280;71954;47.430;18.920;2024-03-08T10:52:43;100266.56;;;8.06;74.29
82353;BME280;71954;47.430;18.920;2024-03-08T10:55:12;100270.50;;;8.13;74.65
82353;BME280;71954;47.430;18.920;2024-03-08T10:57:40;100261.00;;;8.23;74.90
82353;BME280;71954;47.430;18.920;2024-03-08T11:00:08;100266.72;;;8.30;74.24
82353;BME280;71954;47.430;18.920;2024-03-08T11:02:38;100261.16;;;8.34;74.37
82353;BME280;71954;47.430;18.920;2024-03-08T11:05:09;100271.31;;;8.40;74.29
82353;BME280;71954;47.430;18.920;2024-03-08T11:07:42;100267.66;;;8.29;73.95
82353;BME280;71954;47.430;18.920;2024-03-08T11:10:19;100258.41;;;8.36;73.80
82353;BME280;71954;47.430;18.920;2024-03-08T11:12:46;100257.03;;;8.30;74.39
82353;BME280;71954;47.430;18.920;2024-03-08T11:15:14;100254.81;;;8.37;74.55
82353;BME280;71954;47.430;18.920;2024-03-08T11:17:47;100258.13;;;8.13;74.46
82353;BME280;71954;47.430;18.920;2024-03-08T11:20:16;100254.63;;;8.13;74.39
82353;BME280;71954;47.430;18.920;2024-03-08T11:22:52;100257.06;;;8.16;74.92
82353;BME280;71954;47.430;18.920;2024-03-08T11:25:33;100242.25;;;8.26;75.08
82353;BME280;71954;47.430;18.920;2024-03-08T11:28:07;100250.16;;;8.40;74.51
82353;BME280;71954;47.430;18.920;2024-03-08T11:30:34;100248.06;;;8.45;74.57
82353;BME280;71954;47.430;18.920;2024-03-08T11:33:01;100246.09;;;8.62;74.98
82353;BME280;71954;47.430;18.920;2024-03-08T11:35:29;100243.22;;;8.77;74.77
82353;BME280;71954;47.430;18.920;2024-03-08T11:37:59;100237.19;;;8.63;73.25
82353;BME280;71954;47.430;18.920;2024-03-08T11:40:29;100233.88;;;8.46;73.82
82353;BME280;71954;47.430;18.920;2024-03-08T11:42:56;100233.88;;;8.46;74.30
82353;BME280;71954;47.430;18.920;2024-03-08T11:45:23;100235.16;;;8.53;73.90
82353;BME280;71954;47.430;18.920;2024-03-08T11:47:49;100228.63;;;8.59;72.74
82353;BME280;71954;47.430;18.920;2024-03-08T11:50:17;100235.78;;;8.57;73.09
82353;BME280;71954;47.430;18.920;2024-03-08T11:52:47;100226.31;;;8.67;73.02
82353;BME280;71954;47.430;18.920;2024-03-08T11:55:15;100224.78;;;8.50;73.01
82353;BME280;71954;47.430;18.920;2024-03-08T11:57:47;100227.88;;;8.57;73.84
82353;BME280;71954;47.430;18.920;2024-03-08T12:00:18;100227.25;;;8.53;74.72
82353;BME280;71954;47.430;18.920;2024-03-08T12:03:05;100222.47;;;8.58;74.65
82353;BME280;71954;47.430;18.920;2024-03-08T12:05:32;100219.31;;;8.66;73.54
82353;BME280;71954;47.430;18.920;2024-03-08T12:08:02;100225.88;;;8.61;72.76
82353;BME280;71954;47.430;18.920;2024-03-08T12:10:29;100224.09;;;8.74;73.03
82353;BME280;71954;47.430;18.920;2024-03-08T12:12:58;100220.59;;;8.86;72.55
82353;BME280;71954;47.430;18.920;2024-03-08T12:15:28;100219.94;;;8.95;71.64
82353;BME280;71954;47.430;18.920;2024-03-08T12:17:56;100216.75;;;9.03;71.77
82353;BME280;71954;47.430;18.920;2024-03-08T12:20:24;100215.91;;;8.89;71.88
82353;BME280;71954;47.430;18.920;2024-03-08T12:22:56;100214.63;;;8.95;71.97
82353;BME280;71954;47.430;18.920;2024-03-08T12:25:41;100214.63;;;8.95;71.33
82353;BME280;71954;47.430;18.920;2024-03-08T12:28:12;100210.81;;;8.99;70.31
82353;BME280;71954;47.430;18.920;2024-03-08T12:30:51;100208.81;;;9.03;70.21
82353;BME280;71954;47.430;18.920;2024-03-08T12:33:19;100211.22;;;9.06;69.72
82353;BME280;71954;47.430;18.920;2024-03-08T12:35:53;100214.75;;;8.93;69.19
82353;BME280;71954;47.430;18.920;2024-03-08T12:38:22;100208.94;;;8.88;69.33
82353;BME280;71954;47.430;18.920;2024-03-08T12:40:59;100215.06;;;8.89;70.35
82353;BME280;71954;47.430;18.920;2024-03-08T12:43:26;100210.53;;;8.78;70.21
82353;BME280;71954;47.430;18.920;2024-03-08T12:45:57;100209.25;;;8.84;69.92
82353;BME280;71954;47.430;18.920;2024-03-08T12:48:24;100209.69;;;8.65;70.12
82353;BME280;71954;47.430;18.920;2024-03-08T12:50:51;100206.81;;;8.55;70.44
82353;BME280;71954;47.430;18.920;2024-03-08T12:53:18;100199.84;;;8.54;70.90
82353;BME280;71954;47.430;18.920;2024-03-08T12:55:45;100198.75;;;8.57;70.75
82353;BME280;71954;47.430;18.920;2024-03-08T12:58:12;100196.78;;;8.61;70.56
82353;BME280;71954;47.430;18.920;2024-03-08T13:00:38;100197.06;;;8.69;70.26